Terminal Aerodrome Forecast
Issued by NWS Tuscon, AZ

Home | Current Version | Previous Version | Text Only | Print | Product List | Glossary On
Versions: 1 2 3 4 5 6 7 8 9 10 11 12 13 14
000
FTUS45 KTWC 281700
TAFTUS
TAF
KTUS 281733Z 2818/2918 VRB04KT P6SM BKN250
     FM281900 32008KT P6SM FEW100 BKN250
     FM290200 22005KT P6SM OVC250
     FM290700 14007KT P6SM FEW150 OVC200
     FM291600 14012G20KT P6SM SCT120 OVC180=

USA.gov is the U.S. government's official web portal to all federal, state and local government web resources and services.